sensor_id;sensor_type;location;lat;lon;timestamp;P1;durP1;ratioP1;P2;durP2;ratioP2
39792;SDS011;26080;42.264;24.536;2023-04-21T00:02:06;2.08;;;1.60;;
39792;SDS011;26080;42.264;24.536;2023-04-21T00:04:31;1.67;;;1.38;;
39792;SDS011;26080;42.264;24.536;2023-04-21T00:06:57;4.05;;;2.00;;
39792;SDS011;26080;42.264;24.536;2023-04-21T00:09:25;1.75;;;1.25;;
39792;SDS011;26080;42.264;24.536;2023-04-21T00:11:51;1.42;;;1.33;;
39792;SDS011;26080;42.264;24.536;2023-04-21T00:14:16;6.03;;;2.28;;
39792;SDS011;26080;42.264;24.536;2023-04-21T00:16:42;3.33;;;1.58;;
39792;SDS011;26080;42.264;24.536;2023-04-21T00:19:07;0.75;;;0.70;;
39792;SDS011;26080;42.264;24.536;2023-04-21T00:21:33;1.42;;;1.10;;
39792;SDS011;26080;42.264;24.536;2023-04-21T00:23:59;2.53;;;1.13;;
39792;SDS011;26080;42.264;24.536;2023-04-21T00:26:24;2.92;;;1.45;;
39792;SDS011;26080;42.264;24.536;2023-04-21T00:28:50;1.83;;;1.42;;
39792;SDS011;26080;42.264;24.536;2023-04-21T00:31:15;1.33;;;1.23;;
39792;SDS011;26080;42.264;24.536;2023-04-21T00:33:40;3.35;;;1.75;;
39792;SDS011;26080;42.264;24.536;2023-04-21T00:36:06;2.83;;;1.52;;
39792;SDS011;26080;42.264;24.536;2023-04-21T00:38:31;3.53;;;1.45;;
39792;SDS011;26080;42.264;24.536;2023-04-21T00:40:57;3.42;;;0.90;;
39792;SDS011;26080;42.264;24.536;2023-04-21T00:43:22;0.93;;;0.80;;
39792;SDS011;26080;42.264;24.536;2023-04-21T00:45:49;2.20;;;1.70;;
39792;SDS011;26080;42.264;24.536;2023-04-21T00:48:15;1.85;;;1.50;;
39792;SDS011;26080;42.264;24.536;2023-04-21T00:50:41;0.75;;;0.75;;
39792;SDS011;26080;42.264;24.536;2023-04-21T00:53:07;1.20;;;0.65;;
39792;SDS011;26080;42.264;24.536;2023-04-21T00:55:34;0.40;;;0.40;;
39792;SDS011;26080;42.264;24.536;2023-04-21T00:58:00;0.65;;;0.63;;
39792;SDS011;26080;42.264;24.536;2023-04-21T01:00:27;1.00;;;0.85;;
39792;SDS011;26080;42.264;24.536;2023-04-21T01:02:53;2.25;;;1.05;;
39792;SDS011;26080;42.264;24.536;2023-04-21T01:05:19;2.05;;;1.33;;
39792;SDS011;26080;42.264;24.536;2023-04-21T01:07:44;1.30;;;0.85;;
39792;SDS011;26080;42.264;24.536;2023-04-21T01:10:10;1.67;;;1.55;;
39792;SDS011;26080;42.264;24.536;2023-04-21T01:12:45;1.65;;;1.45;;
39792;SDS011;26080;42.264;24.536;2023-04-21T01:15:12;2.38;;;1.35;;
39792;SDS011;26080;42.264;24.536;2023-04-21T01:17:39;1.02;;;0.73;;
39792;SDS011;26080;42.264;24.536;2023-04-21T01:20:08;0.80;;;0.77;;
39792;SDS011;26080;42.264;24.536;2023-04-21T01:22:37;1.38;;;1.27;;
39792;SDS011;26080;42.264;24.536;2023-04-21T01:25:04;3.72;;;1.85;;
39792;SDS011;26080;42.264;24.536;2023-04-21T01:27:30;4.38;;;1.00;;
39792;SDS011;26080;42.264;24.536;2023-04-21T01:29:55;0.82;;;0.82;;
39792;SDS011;26080;42.264;24.536;2023-04-21T01:32:22;0.85;;;0.70;;
39792;SDS011;26080;42.264;24.536;2023-04-21T01:34:50;2.17;;;1.33;;
39792;SDS011;26080;42.264;24.536;2023-04-21T01:37:17;1.98;;;0.95;;
39792;SDS011;26080;42.264;24.536;2023-04-21T01:39:46;0.82;;;0.82;;
39792;SDS011;26080;42.264;24.536;2023-04-21T01:42:18;1.73;;;1.23;;
39792;SDS011;26080;42.264;24.536;2023-04-21T01:44:45;1.17;;;1.08;;
39792;SDS011;26080;42.264;24.536;2023-04-21T01:47:11;0.82;;;0.82;;
39792;SDS011;26080;42.264;24.536;2023-04-21T01:49:36;1.38;;;1.17;;
39792;SDS011;26080;42.264;24.536;2023-04-21T01:52:01;0.80;;;0.80;;
39792;SDS011;26080;42.264;24.536;2023-04-21T01:54:27;1.48;;;0.90;;
39792;SDS011;26080;42.264;24.536;2023-04-21T01:56:52;2.13;;;1.15;;
39792;SDS011;26080;42.264;24.536;2023-04-21T01:59:18;0.65;;;0.65;;
39792;SDS011;26080;42.264;24.536;2023-04-21T02:01:43;1.95;;;1.55;;
39792;SDS011;26080;42.264;24.536;2023-04-21T02:04:09;1.55;;;0.93;;
39792;SDS011;26080;42.264;24.536;2023-04-21T02:06:34;2.05;;;1.00;;
39792;SDS011;26080;42.264;24.536;2023-04-21T02:09:00;2.13;;;1.10;;
39792;SDS011;26080;42.264;24.536;2023-04-21T02:11:25;7.57;;;1.23;;
39792;SDS011;26080;42.264;24.536;2023-04-21T02:13:54;1.52;;;1.10;;
39792;SDS011;26080;42.264;24.536;2023-04-21T02:16:21;2.75;;;2.20;;
39792;SDS011;26080;42.264;24.536;2023-04-21T02:18:50;0.88;;;0.82;;
39792;SDS011;26080;42.264;24.536;2023-04-21T02:21:17;1.63;;;1.02;;
39792;SDS011;26080;42.264;24.536;2023-04-21T02:23:43;15.13;;;1.58;;
39792;SDS011;26080;42.264;24.536;2023-04-21T02:26:08;1.88;;;1.73;;
39792;SDS011;26080;42.264;24.536;2023-04-21T02:28:34;2.03;;;1.50;;
39792;SDS011;26080;42.264;24.536;2023-04-21T02:30:59;1.95;;;1.13;;
39792;SDS011;26080;42.264;24.536;2023-04-21T02:33:25;3.55;;;2.20;;
39792;SDS011;26080;42.264;24.536;2023-04-21T02:35:50;1.05;;;0.95;;
39792;SDS011;26080;42.264;24.536;2023-04-21T02:38:16;2.05;;;1.55;;
39792;SDS011;26080;42.264;24.536;2023-04-21T02:40:41;3.22;;;2.53;;
39792;SDS011;26080;42.264;24.536;2023-04-21T02:43:07;2.60;;;1.40;;
39792;SDS011;26080;42.264;24.536;2023-04-21T02:45:32;0.40;;;0.40;;
39792;SDS011;26080;42.264;24.536;2023-04-21T02:47:58;2.65;;;1.42;;
39792;SDS011;26080;42.264;24.536;2023-04-21T02:50:24;1.50;;;1.40;;
39792;SDS011;26080;42.264;24.536;2023-04-21T02:52:49;3.00;;;2.08;;
39792;SDS011;26080;42.264;24.536;2023-04-21T02:55:15;2.40;;;1.58;;
39792;SDS011;26080;42.264;24.536;2023-04-21T02:57:40;5.00;;;1.83;;
39792;SDS011;26080;42.264;24.536;2023-04-21T03:00:06;2.63;;;1.17;;
39792;SDS011;26080;42.264;24.536;2023-04-21T03:02:32;2.58;;;1.77;;
39792;SDS011;26080;42.264;24.536;2023-04-21T03:04:57;1.35;;;1.15;;
39792;SDS011;26080;42.264;24.536;2023-04-21T03:07:23;1.95;;;1.48;;
39792;SDS011;26080;42.264;24.536;2023-04-21T03:09:48;0.85;;;0.82;;
39792;SDS011;26080;42.264;24.536;2023-04-21T03:12:14;5.03;;;1.15;;
39792;SDS011;26080;42.264;24.536;2023-04-21T03:14:39;3.40;;;2.47;;
39792;SDS011;26080;42.264;24.536;2023-04-21T03:17:06;2.25;;;2.05;;
39792;SDS011;26080;42.264;24.536;2023-04-21T03:19:31;3.40;;;2.03;;
39792;SDS011;26080;42.264;24.536;2023-04-21T03:21:57;1.00;;;0.93;;
39792;SDS011;26080;42.264;24.536;2023-04-21T03:24:22;2.70;;;1.20;;
39792;SDS011;26080;42.264;24.536;2023-04-21T03:26:48;1.20;;;0.70;;
39792;SDS011;26080;42.264;24.536;2023-04-21T03:29:13;2.20;;;1.45;;
39792;SDS011;26080;42.264;24.536;2023-04-21T03:31:39;0.80;;;0.77;;
39792;SDS011;26080;42.264;24.536;2023-04-21T03:34:04;2.70;;;1.50;;
39792;SDS011;26080;42.264;24.536;2023-04-21T03:36:30;2.90;;;2.30;;
39792;SDS011;26080;42.264;24.536;2023-04-21T03:38:58;3.83;;;1.23;;
39792;SDS011;26080;42.264;24.536;2023-04-21T03:41:24;1.38;;;1.27;;
39792;SDS011;26080;42.264;24.536;2023-04-21T03:43:49;5.70;;;2.70;;
39792;SDS011;26080;42.264;24.536;2023-04-21T03:46:17;4.70;;;1.70;;
39792;SDS011;26080;42.264;24.536;2023-04-21T03:48:43;2.72;;;1.45;;
39792;SDS011;26080;42.264;24.536;2023-04-21T03:51:09;6.32;;;2.90;;
39792;SDS011;26080;42.264;24.536;2023-04-21T03:53:35;2.53;;;1.90;;
39792;SDS011;26080;42.264;24.536;2023-04-21T03:56:00;2.67;;;1.67;;
39792;SDS011;26080;42.264;24.536;2023-04-21T03:58:31;18.52;;;4.85;;
39792;SDS011;26080;42.264;24.536;2023-04-21T04:00:57;12.48;;;7.82;;
39792;SDS011;26080;42.264;24.536;2023-04-21T04:03:22;4.88;;;4.38;;
39792;SDS011;26080;42.264;24.536;2023-04-21T04:05:48;14.00;;;7.75;;
39792;SDS011;26080;42.264;24.536;2023-04-21T04:08:13;10.18;;;5.72;;
39792;SDS011;26080;42.264;24.536;2023-04-21T04:10:39;9.18;;;3.95;;
39792;SDS011;26080;42.264;24.536;2023-04-21T04:13:04;4.47;;;2.88;;
39792;SDS011;26080;42.264;24.536;2023-04-21T04:15:30;1.52;;;1.42;;
39792;SDS011;26080;42.264;24.536;2023-04-21T04:17:56;6.60;;;2.25;;
39792;SDS011;26080;42.264;24.536;2023-04-21T04:20:21;7.28;;;2.13;;
39792;SDS011;26080;42.264;24.536;2023-04-21T04:22:47;4.68;;;2.30;;
39792;SDS011;26080;42.264;24.536;2023-04-21T04:25:12;3.35;;;1.75;;
39792;SDS011;26080;42.264;24.536;2023-04-21T04:27:40;1.00;;;0.82;;
39792;SDS011;26080;42.264;24.536;2023-04-21T04:30:10;1.55;;;1.45;;
39792;SDS011;26080;42.264;24.536;2023-04-21T04:32:36;3.00;;;1.65;;
39792;SDS011;26080;42.264;24.536;2023-04-21T04:35:05;1.88;;;1.70;;
39792;SDS011;26080;42.264;24.536;2023-04-21T04:37:32;1.45;;;1.27;;
39792;SDS011;26080;42.264;24.536;2023-04-21T04:39:59;2.30;;;1.70;;
39792;SDS011;26080;42.264;24.536;2023-04-21T04:42:25;3.03;;;2.35;;
39792;SDS011;26080;42.264;24.536;2023-04-21T04:44:53;2.80;;;1.45;;
39792;SDS011;26080;42.264;24.536;2023-04-21T04:47:19;4.35;;;2.00;;
39792;SDS011;26080;42.264;24.536;2023-04-21T04:49:45;4.68;;;2.72;;
39792;SDS011;26080;42.264;24.536;2023-04-21T04:52:11;2.72;;;1.67;;
39792;SDS011;26080;42.264;24.536;2023-04-21T04:54:36;2.70;;;2.38;;
39792;SDS011;26080;42.264;24.536;2023-04-21T04:57:01;14.68;;;2.92;;
39792;SDS011;26080;42.264;24.536;2023-04-21T04:59:27;5.88;;;3.00;;
39792;SDS011;26080;42.264;24.536;2023-04-21T05:01:54;9.32;;;5.47;;
39792;SDS011;26080;42.264;24.536;2023-04-21T05:04:20;11.25;;;4.82;;
39792;SDS011;26080;42.264;24.536;2023-04-21T05:06:45;4.90;;;3.53;;
39792;SDS011;26080;42.264;24.536;2023-04-21T05:09:11;8.40;;;3.80;;
39792;SDS011;26080;42.264;24.536;2023-04-21T05:11:37;5.90;;;3.20;;
39792;SDS011;26080;42.264;24.536;2023-04-21T05:14:02;3.25;;;1.83;;
39792;SDS011;26080;42.264;24.536;2023-04-21T05:16:27;2.42;;;1.70;;
39792;SDS011;26080;42.264;24.536;2023-04-21T05:18:53;2.60;;;1.88;;
39792;SDS011;26080;42.264;24.536;2023-04-21T05:21:22;2.22;;;1.35;;
39792;SDS011;26080;42.264;24.536;2023-04-21T05:23:54;0.93;;;0.93;;
39792;SDS011;26080;42.264;24.536;2023-04-21T05:26:20;4.88;;;2.78;;
39792;SDS011;26080;42.264;24.536;2023-04-21T05:28:46;1.42;;;1.10;;
39792;SDS011;26080;42.264;24.536;2023-04-21T05:31:11;3.33;;;1.55;;
39792;SDS011;26080;42.264;24.536;2023-04-21T05:33:36;2.88;;;1.48;;
39792;SDS011;26080;42.264;24.536;2023-04-21T05:36:05;3.00;;;2.00;;
39792;SDS011;26080;42.264;24.536;2023-04-21T05:38:32;2.55;;;1.92;;
39792;SDS011;26080;42.264;24.536;2023-04-21T05:40:57;2.58;;;1.58;;
39792;SDS011;26080;42.264;24.536;2023-04-21T05:43:22;2.88;;;1.40;;
39792;SDS011;26080;42.264;24.536;2023-04-21T05:45:48;2.05;;;1.20;;
39792;SDS011;26080;42.264;24.536;2023-04-21T05:48:13;3.08;;;1.80;;
39792;SDS011;26080;42.264;24.536;2023-04-21T05:50:39;1.30;;;1.20;;
39792;SDS011;26080;42.264;24.536;2023-04-21T05:53:04;1.50;;;1.40;;
39792;SDS011;26080;42.264;24.536;2023-04-21T05:55:30;3.80;;;1.58;;
39792;SDS011;26080;42.264;24.536;2023-04-21T05:57:57;7.65;;;2.72;;
39792;SDS011;26080;42.264;24.536;2023-04-21T06:00:23;2.45;;;2.25;;
39792;SDS011;26080;42.264;24.536;2023-04-21T06:02:48;2.60;;;1.85;;
39792;SDS011;26080;42.264;24.536;2023-04-21T06:05:14;2.17;;;1.50;;
39792;SDS011;26080;42.264;24.536;2023-04-21T06:07:40;2.13;;;1.90;;
39792;SDS011;26080;42.264;24.536;2023-04-21T06:10:05;1.10;;;1.00;;
39792;SDS011;26080;42.264;24.536;2023-04-21T06:12:31;7.68;;;1.95;;
39792;SDS011;26080;42.264;24.536;2023-04-21T06:14:57;1.50;;;1.40;;
39792;SDS011;26080;42.264;24.536;2023-04-21T06:17:23;4.93;;;2.83;;
39792;SDS011;26080;42.264;24.536;2023-04-21T06:19:49;5.07;;;2.95;;
39792;SDS011;26080;42.264;24.536;2023-04-21T06:22:23;4.38;;;2.97;;
39792;SDS011;26080;42.264;24.536;2023-04-21T06:24:49;2.35;;;2.15;;
39792;SDS011;26080;42.264;24.536;2023-04-21T06:27:15;1.80;;;1.20;;
39792;SDS011;26080;42.264;24.536;2023-04-21T06:29:41;4.50;;;1.27;;
39792;SDS011;26080;42.264;24.536;2023-04-21T06:32:07;1.77;;;1.05;;
39792;SDS011;26080;42.264;24.536;2023-04-21T06:34:33;3.17;;;1.17;;
39792;SDS011;26080;42.264;24.536;2023-04-21T06:36:58;1.70;;;1.58;;
39792;SDS011;26080;42.264;24.536;2023-04-21T06:39:24;2.22;;;1.25;;
39792;SDS011;26080;42.264;24.536;2023-04-21T06:41:49;1.23;;;0.90;;
39792;SDS011;26080;42.264;24.536;2023-04-21T06:44:15;1.52;;;1.42;;
39792;SDS011;26080;42.264;24.536;2023-04-21T06:46:40;1.30;;;1.17;;
39792;SDS011;26080;42.264;24.536;2023-04-21T06:49:06;2.63;;;2.13;;
39792;SDS011;26080;42.264;24.536;2023-04-21T06:51:32;1.77;;;1.00;;
39792;SDS011;26080;42.264;24.536;2023-04-21T06:53:58;2.15;;;1.30;;
39792;SDS011;26080;42.264;24.536;2023-04-21T06:56:25;2.03;;;1.63;;
39792;SDS011;26080;42.264;24.536;2023-04-21T06:58:51;4.15;;;0.90;;
39792;SDS011;26080;42.264;24.536;2023-04-21T07:01:17;2.35;;;1.73;;
39792;SDS011;26080;42.264;24.536;2023-04-21T07:03:42;1.20;;;1.10;;
39792;SDS011;26080;42.264;24.536;2023-04-21T07:06:08;1.45;;;0.93;;
39792;SDS011;26080;42.264;24.536;2023-04-21T07:08:33;4.63;;;1.35;;
39792;SDS011;26080;42.264;24.536;2023-04-21T07:10:59;1.08;;;0.93;;
39792;SDS011;26080;42.264;24.536;2023-04-21T07:13:24;1.48;;;0.82;;
39792;SDS011;26080;42.264;24.536;2023-04-21T07:15:50;2.60;;;1.48;;
39792;SDS011;26080;42.264;24.536;2023-04-21T07:18:15;5.05;;;1.23;;
39792;SDS011;26080;42.264;24.536;2023-04-21T07:20:41;3.97;;;1.58;;
39792;SDS011;26080;42.264;24.536;2023-04-21T07:23:06;1.48;;;1.15;;
39792;SDS011;26080;42.264;24.536;2023-04-21T07:25:32;1.58;;;1.48;;
39792;SDS011;26080;42.264;24.536;2023-04-21T07:27:57;1.60;;;0.98;;
39792;SDS011;26080;42.264;24.536;2023-04-21T07:30:23;2.92;;;1.73;;
39792;SDS011;26080;42.264;24.536;2023-04-21T07:32:49;1.70;;;1.25;;
39792;SDS011;26080;42.264;24.536;2023-04-21T07:35:14;2.42;;;1.23;;
39792;SDS011;26080;42.264;24.536;2023-04-21T07:37:40;1.73;;;1.30;;
39792;SDS011;26080;42.264;24.536;2023-04-21T07:40:06;2.30;;;0.90;;
39792;SDS011;26080;42.264;24.536;2023-04-21T07:42:33;2.30;;;1.65;;
39792;SDS011;26080;42.264;24.536;2023-04-21T07:45:01;2.30;;;1.40;;
39792;SDS011;26080;42.264;24.536;2023-04-21T07:47:28;2.72;;;2.00;;
39792;SDS011;26080;42.264;24.536;2023-04-21T07:49:53;17.65;;;1.52;;
39792;SDS011;26080;42.264;24.536;2023-04-21T07:52:19;2.60;;;1.52;;
39792;SDS011;26080;42.264;24.536;2023-04-21T07:54:45;1.25;;;1.15;;
39792;SDS011;26080;42.264;24.536;2023-04-21T07:57:10;2.38;;;1.25;;
39792;SDS011;26080;42.264;24.536;2023-04-21T07:59:36;3.40;;;1.55;;
39792;SDS011;26080;42.264;24.536;2023-04-21T08:02:01;1.98;;;1.48;;
39792;SDS011;26080;42.264;24.536;2023-04-21T08:04:27;1.08;;;0.50;;
39792;SDS011;26080;42.264;24.536;2023-04-21T08:06:52;1.40;;;1.30;;
39792;SDS011;26080;42.264;24.536;2023-04-21T08:09:18;1.48;;;0.75;;
39792;SDS011;26080;42.264;24.536;2023-04-21T08:11:43;2.70;;;1.63;;
39792;SDS011;26080;42.264;24.536;2023-04-21T08:14:10;0.93;;;0.82;;
39792;SDS011;26080;42.264;24.536;2023-04-21T08:16:36;2.50;;;1.42;;
39792;SDS011;26080;42.264;24.536;2023-04-21T08:19:02;2.22;;;1.45;;
39792;SDS011;26080;42.264;24.536;2023-04-21T08:21:28;3.88;;;2.10;;
39792;SDS011;26080;42.264;24.536;2023-04-21T08:23:55;3.83;;;0.95;;
39792;SDS011;26080;42.264;24.536;2023-04-21T08:26:21;2.45;;;1.08;;
39792;SDS011;26080;42.264;24.536;2023-04-21T08:28:48;1.48;;;1.25;;
39792;SDS011;26080;42.264;24.536;2023-04-21T08:31:16;1.23;;;1.13;;
39792;SDS011;26080;42.264;24.536;2023-04-21T08:33:41;2.95;;;1.38;;
39792;SDS011;26080;42.264;24.536;2023-04-21T08:36:07;2.25;;;1.13;;
39792;SDS011;26080;42.264;24.536;2023-04-21T08:38:32;2.17;;;1.33;;
39792;SDS011;26080;42.264;24.536;2023-04-21T08:40:59;3.30;;;1.38;;
39792;SDS011;26080;42.264;24.536;2023-04-21T08:43:25;2.45;;;1.05;;
39792;SDS011;26080;42.264;24.536;2023-04-21T08:45:50;1.95;;;1.58;;
39792;SDS011;26080;42.264;24.536;2023-04-21T08:48:18;1.52;;;1.08;;
39792;SDS011;26080;42.264;24.536;2023-04-21T08:50:48;1.17;;;0.77;;
39792;SDS011;26080;42.264;24.536;2023-04-21T08:53:15;2.67;;;1.27;;
39792;SDS011;26080;42.264;24.536;2023-04-21T08:55:41;1.48;;;0.60;;
39792;SDS011;26080;42.264;24.536;2023-04-21T08:58:07;2.92;;;1.70;;
39792;SDS011;26080;42.264;24.536;2023-04-21T09:00:36;1.83;;;1.55;;
39792;SDS011;26080;42.264;24.536;2023-04-21T09:03:03;2.60;;;1.73;;
39792;SDS011;26080;42.264;24.536;2023-04-21T09:05:32;2.58;;;1.40;;
39792;SDS011;26080;42.264;24.536;2023-04-21T09:10:33;3.38;;;1.40;;
39792;SDS011;26080;42.264;24.536;2023-04-21T09:13:06;1.33;;;0.75;;
39792;SDS011;26080;42.264;24.536;2023-04-21T09:15:41;1.10;;;0.98;;
39792;SDS011;26080;42.264;24.536;2023-04-21T09:18:24;1.48;;;0.73;;
39792;SDS011;26080;42.264;24.536;2023-04-21T09:21:03;1.73;;;0.60;;
39792;SDS011;26080;42.264;24.536;2023-04-21T09:23:42;0.98;;;0.57;;
39792;SDS011;26080;42.264;24.536;2023-04-21T09:26:11;0.98;;;0.80;;
39792;SDS011;26080;42.264;24.536;2023-04-21T09:28:39;1.52;;;0.93;;
39792;SDS011;26080;42.264;24.536;2023-04-21T09:31:16;1.65;;;0.95;;
39792;SDS011;26080;42.264;24.536;2023-04-21T09:33:53;0.60;;;0.60;;
39792;SDS011;26080;42.264;24.536;2023-04-21T09:36:20;1.15;;;0.85;;
39792;SDS011;26080;42.264;24.536;2023-04-21T09:38:57;1.45;;;1.08;;
39792;SDS011;26080;42.264;24.536;2023-04-21T09:41:25;1.92;;;1.08;;
39792;SDS011;26080;42.264;24.536;2023-04-21T09:43:51;1.20;;;0.82;;
39792;SDS011;26080;42.264;24.536;2023-04-21T09:46:17;2.03;;;0.98;;
39792;SDS011;26080;42.264;24.536;2023-04-21T09:48:45;0.77;;;0.45;;
39792;SDS011;26080;42.264;24.536;2023-04-21T09:51:12;0.57;;;0.57;;
39792;SDS011;26080;42.264;24.536;2023-04-21T09:53:39;2.00;;;1.08;;
39792;SDS011;26080;42.264;24.536;2023-04-21T09:56:12;0.60;;;0.57;;
39792;SDS011;26080;42.264;24.536;2023-04-21T09:58:51;0.40;;;0.40;;
39792;SDS011;26080;42.264;24.536;2023-04-21T10:01:18;0.88;;;0.70;;
39792;SDS011;26080;42.264;24.536;2023-04-21T10:03:44;0.68;;;0.52;;
39792;SDS011;26080;42.264;24.536;2023-04-21T10:06:12;0.75;;;0.60;;
39792;SDS011;26080;42.264;24.536;2023-04-21T10:08:39;1.13;;;0.75;;
39792;SDS011;26080;42.264;24.536;2023-04-21T10:11:05;1.20;;;0.90;;
39792;SDS011;26080;42.264;24.536;2023-04-21T10:13:32;1.38;;;1.15;;
39792;SDS011;26080;42.264;24.536;2023-04-21T10:16:05;1.90;;;1.10;;
39792;SDS011;26080;42.264;24.536;2023-04-21T10:18:37;1.42;;;0.93;;
39792;SDS011;26080;42.264;24.536;2023-04-21T10:21:07;0.80;;;0.50;;
39792;SDS011;26080;42.264;24.536;2023-04-21T10:23:41;0.63;;;0.55;;
39792;SDS011;26080;42.264;24.536;2023-04-21T10:26:12;0.70;;;0.63;;
39792;SDS011;26080;42.264;24.536;2023-04-21T10:31:53;1.65;;;0.60;;
39792;SDS011;26080;42.264;24.536;2023-04-21T10:39:10;1.42;;;0.45;;
39792;SDS011;26080;42.264;24.536;2023-04-21T10:41:37;1.58;;;0.85;;
39792;SDS011;26080;42.264;24.536;2023-04-21T10:46:34;1.98;;;1.20;;
39792;SDS011;26080;42.264;24.536;2023-04-21T10:49:11;1.17;;;0.95;;
39792;SDS011;26080;42.264;24.536;2023-04-21T10:54:28;0.40;;;0.40;;
39792;SDS011;26080;42.264;24.536;2023-04-21T10:56:57;7.00;;;0.95;;
39792;SDS011;26080;42.264;24.536;2023-04-21T10:59:24;4.35;;;1.80;;
39792;SDS011;26080;42.264;24.536;2023-04-21T11:01:51;13.68;;;1.65;;
39792;SDS011;26080;42.264;24.536;2023-04-21T11:04:17;2.67;;;1.30;;
39792;SDS011;26080;42.264;24.536;2023-04-21T11:09:32;1.77;;;0.80;;
39792;SDS011;26080;42.264;24.536;2023-04-21T11:12:01;1.77;;;0.93;;
39792;SDS011;26080;42.264;24.536;2023-04-21T11:14:28;1.38;;;0.80;;
39792;SDS011;26080;42.264;24.536;2023-04-21T11:16:54;2.83;;;0.50;;
39792;SDS011;26080;42.264;24.536;2023-04-21T11:19:20;0.63;;;0.52;;
39792;SDS011;26080;42.264;24.536;2023-04-21T11:21:50;1.35;;;0.93;;
39792;SDS011;26080;42.264;24.536;2023-04-21T11:24:16;0.30;;;0.30;;
39792;SDS011;26080;42.264;24.536;2023-04-21T11:26:42;1.45;;;0.68;;
39792;SDS011;26080;42.264;24.536;2023-04-21T11:29:08;0.63;;;0.55;;
39792;SDS011;26080;42.264;24.536;2023-04-21T11:31:36;0.50;;;0.50;;
39792;SDS011;26080;42.264;24.536;2023-04-21T11:34:03;1.80;;;0.70;;
39792;SDS011;26080;42.264;24.536;2023-04-21T11:36:38;0.52;;;0.45;;
39792;SDS011;26080;42.264;24.536;2023-04-21T11:39:05;0.85;;;0.50;;
39792;SDS011;26080;42.264;24.536;2023-04-21T11:41:34;0.85;;;0.80;;
39792;SDS011;26080;42.264;24.536;2023-04-21T11:44:01;2.72;;;0.88;;
39792;SDS011;26080;42.264;24.536;2023-04-21T11:46:27;0.70;;;0.70;;
39792;SDS011;26080;42.264;24.536;2023-04-21T11:49:00;0.95;;;0.80;;
39792;SDS011;26080;42.264;24.536;2023-04-21T11:51:25;1.35;;;0.63;;
39792;SDS011;26080;42.264;24.536;2023-04-21T11:53:57;4.18;;;0.80;;
39792;SDS011;26080;42.264;24.536;2023-04-21T11:56:23;1.25;;;0.57;;
39792;SDS011;26080;42.264;24.536;2023-04-21T11:58:49;5.82;;;0.85;;
39792;SDS011;26080;42.264;24.536;2023-04-21T12:01:16;1.70;;;1.27;;
39792;SDS011;26080;42.264;24.536;2023-04-21T12:03:49;0.52;;;0.40;;
39792;SDS011;26080;42.264;24.536;2023-04-21T12:06:27;0.32;;;0.30;;
39792;SDS011;26080;42.264;24.536;2023-04-21T12:08:56;0.50;;;0.50;;
39792;SDS011;26080;42.264;24.536;2023-04-21T12:11:28;0.65;;;0.57;;
39792;SDS011;26080;42.264;24.536;2023-04-21T12:13:55;0.90;;;0.80;;
39792;SDS011;26080;42.264;24.536;2023-04-21T12:16:27;4.38;;;2.03;;
39792;SDS011;26080;42.264;24.536;2023-04-21T12:18:53;1.77;;;1.10;;
39792;SDS011;26080;42.264;24.536;2023-04-21T12:21:26;2.10;;;0.80;;
39792;SDS011;26080;42.264;24.536;2023-04-21T12:23:54;0.98;;;0.73;;
39792;SDS011;26080;42.264;24.536;2023-04-21T12:26:20;0.85;;;0.60;;
39792;SDS011;26080;42.264;24.536;2023-04-21T12:28:47;3.40;;;0.73;;
39792;SDS011;26080;42.264;24.536;2023-04-21T12:31:14;0.52;;;0.50;;
39792;SDS011;26080;42.264;24.536;2023-04-21T12:33:39;0.95;;;0.70;;
39792;SDS011;26080;42.264;24.536;2023-04-21T12:36:05;1.70;;;0.57;;
39792;SDS011;26080;42.264;24.536;2023-04-21T12:38:31;1.33;;;0.65;;
39792;SDS011;26080;42.264;24.536;2023-04-21T12:40:56;3.42;;;0.70;;
39792;SDS011;26080;42.264;24.536;2023-04-21T12:43:22;0.77;;;0.75;;
39792;SDS011;26080;42.264;24.536;2023-04-21T12:45:48;0.60;;;0.55;;
39792;SDS011;26080;42.264;24.536;2023-04-21T12:48:13;0.70;;;0.63;;
39792;SDS011;26080;42.264;24.536;2023-04-21T12:50:39;1.42;;;0.70;;
39792;SDS011;26080;42.264;24.536;2023-04-21T12:53:04;0.50;;;0.50;;
39792;SDS011;26080;42.264;24.536;2023-04-21T12:55:29;0.70;;;0.70;;
39792;SDS011;26080;42.264;24.536;2023-04-21T12:57:55;0.50;;;0.40;;
39792;SDS011;26080;42.264;24.536;2023-04-21T13:00:20;0.70;;;0.60;;
39792;SDS011;26080;42.264;24.536;2023-04-21T13:02:46;0.52;;;0.40;;
39792;SDS011;26080;42.264;24.536;2023-04-21T13:05:11;1.02;;;0.50;;
39792;SDS011;26080;42.264;24.536;2023-04-21T13:07:37;0.20;;;0.20;;
39792;SDS011;26080;42.264;24.536;2023-04-21T13:10:03;0.30;;;0.25;;
39792;SDS011;26080;42.264;24.536;2023-04-21T13:12:30;0.45;;;0.38;;
39792;SDS011;26080;42.264;24.536;2023-04-21T13:14:56;0.32;;;0.32;;
39792;SDS011;26080;42.264;24.536;2023-04-21T13:17:22;0.55;;;0.40;;
39792;SDS011;26080;42.264;24.536;2023-04-21T13:19:47;0.45;;;0.40;;
39792;SDS011;26080;42.264;24.536;2023-04-21T13:22:13;0.40;;;0.40;;
39792;SDS011;26080;42.264;24.536;2023-04-21T13:24:39;0.88;;;0.57;;
39792;SDS011;26080;42.264;24.536;2023-04-21T13:27:04;1.58;;;0.95;;
39792;SDS011;26080;42.264;24.536;2023-04-21T13:29:30;0.98;;;0.57;;
39792;SDS011;26080;42.264;24.536;2023-04-21T13:32:01;1.98;;;1.08;;
39792;SDS011;26080;42.264;24.536;2023-04-21T13:34:29;1.48;;;0.75;;
39792;SDS011;26080;42.264;24.536;2023-04-21T13:36:55;0.35;;;0.35;;
39792;SDS011;26080;42.264;24.536;2023-04-21T13:39:20;2.40;;;0.60;;
39792;SDS011;26080;42.264;24.536;2023-04-21T13:41:46;0.80;;;0.57;;
39792;SDS011;26080;42.264;24.536;2023-04-21T13:44:12;0.75;;;0.60;;
39792;SDS011;26080;42.264;24.536;2023-04-21T13:46:37;0.57;;;0.47;;
39792;SDS011;26080;42.264;24.536;2023-04-21T13:49:03;0.20;;;0.20;;
39792;SDS011;26080;42.264;24.536;2023-04-21T13:51:30;0.90;;;0.90;;
39792;SDS011;26080;42.264;24.536;2023-04-21T13:53:56;0.82;;;0.70;;
39792;SDS011;26080;42.264;24.536;2023-04-21T13:56:21;1.80;;;1.33;;
39792;SDS011;26080;42.264;24.536;2023-04-21T13:58:47;1.02;;;0.93;;
39792;SDS011;26080;42.264;24.536;2023-04-21T14:01:12;5.50;;;0.63;;
39792;SDS011;26080;42.264;24.536;2023-04-21T14:03:38;1.40;;;0.80;;
39792;SDS011;26080;42.264;24.536;2023-04-21T14:06:04;1.33;;;0.88;;
39792;SDS011;26080;42.264;24.536;2023-04-21T14:08:30;0.57;;;0.57;;
39792;SDS011;26080;42.264;24.536;2023-04-21T14:10:55;1.38;;;1.15;;
39792;SDS011;26080;42.264;24.536;2023-04-21T14:13:21;0.43;;;0.38;;
39792;SDS011;26080;42.264;24.536;2023-04-21T14:15:47;0.40;;;0.40;;
39792;SDS011;26080;42.264;24.536;2023-04-21T14:18:13;0.85;;;0.82;;
39792;SDS011;26080;42.264;24.536;2023-04-21T14:20:38;1.52;;;0.82;;
39792;SDS011;26080;42.264;24.536;2023-04-21T14:23:04;0.30;;;0.30;;
39792;SDS011;26080;42.264;24.536;2023-04-21T14:25:29;0.40;;;0.40;;
39792;SDS011;26080;42.264;24.536;2023-04-21T14:27:58;0.57;;;0.55;;
39792;SDS011;26080;42.264;24.536;2023-04-21T14:30:24;0.40;;;0.40;;
39792;SDS011;26080;42.264;24.536;2023-04-21T14:32:49;0.35;;;0.30;;
39792;SDS011;26080;42.264;24.536;2023-04-21T14:35:15;0.57;;;0.40;;
39792;SDS011;26080;42.264;24.536;2023-04-21T14:37:40;1.13;;;0.80;;
39792;SDS011;26080;42.264;24.536;2023-04-21T14:40:06;0.65;;;0.60;;
39792;SDS011;26080;42.264;24.536;2023-04-21T14:42:33;0.47;;;0.45;;
39792;SDS011;26080;42.264;24.536;2023-04-21T14:44:58;0.60;;;0.50;;
39792;SDS011;26080;42.264;24.536;2023-04-21T14:47:24;1.08;;;0.57;;
39792;SDS011;26080;42.264;24.536;2023-04-21T14:49:50;0.65;;;0.65;;